Time;durP1;ratioP1;P1;durP2;ratioP2;P2;SDS_P1;SDS_P2;PMS_P1;PMS_P2;Temp;Humidity;BMP_temperature;BMP_pressure;BME280_temperature;BME280_humidity;BME280_pressure;Samples;Min_cycle;Max_cycle;Signal;HPM_P1;HPM_P2
2022/08/14 00:02:25;;;;;;;9.55;7.85;;;;;;;;;;5021768;28;20026;-82
2022/08/14 00:04:51;;;;;;;9.57;7.38;;;;;;;;;;5019261;28;20060;-82
2022/08/14 00:07:16;;;;;;;12.40;7.80;;;;;;;;;;5018545;28;20053;-82
2022/08/14 00:09:43;;;;;;;10.30;8.02;;;;;;;;;;5000554;28;20022;-82
2022/08/14 00:12:09;;;;;;;11.07;7.60;;;;;;;;;;5017718;28;20041;-82
2022/08/14 00:14:35;;;;;;;9.98;7.97;;;;;;;;;;5019409;28;20235;-83
2022/08/14 00:17:01;;;;;;;16.00;9.25;;;;;;;;;;5022182;28;20033;-82
2022/08/14 00:19:26;;;;;;;11.50;8.63;;;;;;;;;;5024774;28;20032;-82
2022/08/14 00:21:52;;;;;;;11.40;7.95;;;;;;;;;;5017066;28;20025;-82
2022/08/14 00:24:19;;;;;;;11.32;8.10;;;;;;;;;;5011438;28;20116;-83
2022/08/14 00:26:44;;;;;;;12.32;9.20;;;;;;;;;;4994375;28;20026;-83
2022/08/14 00:29:10;;;;;;;11.45;8.80;;;;;;;;;;5011301;28;20049;-82
2022/08/14 00:31:35;;;;;;;16.58;8.77;;;;;;;;;;5012670;28;20033;-83
2022/08/14 00:34:01;;;;;;;12.48;8.38;;;;;;;;;;5021435;28;20033;-83
2022/08/14 00:36:27;;;;;;;13.02;8.85;;;;;;;;;;5022798;28;20389;-83
2022/08/14 00:38:52;;;;;;;11.88;9.10;;;;;;;;;;5015929;28;20030;-83
2022/08/14 00:41:18;;;;;;;13.40;9.70;;;;;;;;;;5014163;28;20030;-83
2022/08/14 00:43:44;;;;;;;12.05;9.15;;;;;;;;;;5014451;28;20026;-83
2022/08/14 00:46:10;;;;;;;11.73;8.50;;;;;;;;;;5001562;28;20032;-83
2022/08/14 00:48:36;;;;;;;10.55;8.02;;;;;;;;;;5018404;28;20409;-83
2022/08/14 00:51:04;;;;;;;11.60;8.85;;;;;;;;;;5014367;28;20091;-83
2022/08/14 00:53:30;;;;;;;12.02;9.07;;;;;;;;;;4998535;28;20080;-83
2022/08/14 00:55:56;;;;;;;10.88;8.55;;;;;;;;;;5017617;28;20091;-83
2022/08/14 00:58:31;;;;;;;11.35;8.70;;;;;;;;;;5015342;28;20025;-83
2022/08/14 01:00:58;;;;;;;11.75;7.60;;;;;;;;;;5012328;28;20018;-83
2022/08/14 01:03:28;;;;;;;12.25;8.18;;;;;;;;;;5012513;28;20083;-83
2022/08/14 01:05:54;;;;;;;10.18;7.47;;;;;;;;;;5018563;28;20056;-82
2022/08/14 01:08:22;;;;;;;14.60;8.18;;;;;;;;;;5023169;28;20427;-83
2022/08/14 01:10:51;;;;;;;11.68;7.75;;;;;;;;;;5024858;28;20461;-83
2022/08/14 01:13:22;;;;;;;14.37;8.03;;;;;;;;;;5023420;28;20032;-83
2022/08/14 01:15:54;;;;;;;10.85;8.25;;;;;;;;;;5016582;28;20040;-82
2022/08/14 01:21:07;;;;;;;13.65;9.48;;;;;;;;;;5016828;28;20083;-82
2022/08/14 01:23:41;;;;;;;10.95;8.07;;;;;;;;;;4997514;28;20486;-82
2022/08/14 01:26:07;;;;;;;12.77;8.63;;;;;;;;;;5021615;28;20458;-82
2022/08/14 01:28:36;;;;;;;10.73;8.20;;;;;;;;;;5018473;28;20048;-83
2022/08/14 01:31:05;;;;;;;11.73;8.77;;;;;;;;;;5026016;28;20034;-83
2022/08/14 01:33:31;;;;;;;13.45;9.35;;;;;;;;;;5015305;28;20088;-83
2022/08/14 01:35:59;;;;;;;13.05;9.65;;;;;;;;;;5012148;28;20104;-82
2022/08/14 01:38:33;;;;;;;11.20;9.15;;;;;;;;;;5019197;28;20048;-82
2022/08/14 01:41:05;;;;;;;14.45;9.07;;;;;;;;;;5017726;28;20768;-83
2022/08/14 01:43:38;;;;;;;14.25;9.38;;;;;;;;;;5018341;28;20478;-82
2022/08/14 01:46:05;;;;;;;12.82;9.15;;;;;;;;;;5014881;28;20370;-82
2022/08/14 01:48:31;;;;;;;11.23;8.05;;;;;;;;;;5017885;28;20029;-83
2022/08/14 01:51:00;;;;;;;12.18;8.57;;;;;;;;;;5016011;28;20028;-83
2022/08/14 01:53:27;;;;;;;12.68;9.80;;;;;;;;;;5026037;28;20041;-83
2022/08/14 01:55:57;;;;;;;15.45;9.27;;;;;;;;;;5021325;28;20022;-83
2022/08/14 01:58:26;;;;;;;12.18;9.02;;;;;;;;;;5023290;28;20053;-82
2022/08/14 02:00:53;;;;;;;13.57;9.73;;;;;;;;;;5023286;28;20025;-82
2022/08/14 02:03:19;;;;;;;12.77;9.00;;;;;;;;;;5022810;28;20513;-82
2022/08/14 02:05:44;;;;;;;13.32;10.18;;;;;;;;;;5020746;28;20029;-82
2022/08/14 02:08:10;;;;;;;12.95;9.90;;;;;;;;;;5021091;28;20157;-82
2022/08/14 02:10:38;;;;;;;13.80;9.13;;;;;;;;;;5018117;28;20425;-83
2022/08/14 02:13:07;;;;;;;12.85;9.15;;;;;;;;;;5019013;28;20088;-83
2022/08/14 02:15:33;;;;;;;10.18;8.40;;;;;;;;;;5026086;28;20053;-82
2022/08/14 02:18:00;;;;;;;11.48;8.73;;;;;;;;;;5026223;28;20029;-82
2022/08/14 02:20:32;;;;;;;16.45;9.80;;;;;;;;;;5023811;28;20061;-82
2022/08/14 02:23:01;;;;;;;22.15;13.73;;;;;;;;;;5016194;28;20091;-83
2022/08/14 02:25:29;;;;;;;27.10;15.65;;;;;;;;;;5003867;28;20030;-82
2022/08/14 02:27:55;;;;;;;32.88;15.80;;;;;;;;;;5016911;28;20526;-83
2022/08/14 02:30:23;;;;;;;30.45;16.10;;;;;;;;;;5000695;28;20045;-83
2022/08/14 02:32:52;;;;;;;29.35;15.55;;;;;;;;;;4997551;28;20057;-82
2022/08/14 02:35:17;;;;;;;42.35;19.88;;;;;;;;;;5020651;28;20030;-83
2022/08/14 02:37:45;;;;;;;41.03;19.10;;;;;;;;;;5002404;28;20040;-83
2022/08/14 02:40:11;;;;;;;33.80;17.25;;;;;;;;;;5019126;28;20028;-83
2022/08/14 02:42:38;;;;;;;26.55;13.52;;;;;;;;;;5020625;28;20033;-83
2022/08/14 02:45:04;;;;;;;22.80;13.55;;;;;;;;;;5023761;28;20104;-83
2022/08/14 02:47:30;;;;;;;20.33;12.73;;;;;;;;;;5019316;28;20030;-83
2022/08/14 02:49:56;;;;;;;19.48;11.38;;;;;;;;;;5002251;28;20022;-82
2022/08/14 02:52:21;;;;;;;17.85;11.70;;;;;;;;;;5013537;28;20030;-82
2022/08/14 02:54:47;;;;;;;21.88;12.95;;;;;;;;;;5021401;28;20025;-82
2022/08/14 02:57:13;;;;;;;20.40;12.73;;;;;;;;;;5006158;28;20041;-83
2022/08/14 02:59:39;;;;;;;21.48;12.88;;;;;;;;;;5015738;28;20387;-83
2022/08/14 03:02:07;;;;;;;22.63;13.38;;;;;;;;;;5017185;28;20091;-82
2022/08/14 03:04:32;;;;;;;24.88;14.60;;;;;;;;;;5023583;28;20082;-83
2022/08/14 03:06:59;;;;;;;24.73;15.25;;;;;;;;;;5020997;28;20045;-82
2022/08/14 03:09:26;;;;;;;29.08;17.60;;;;;;;;;;5014724;28;20041;-84
2022/08/14 03:11:51;;;;;;;31.85;17.60;;;;;;;;;;5016555;28;20045;-83
2022/08/14 03:14:17;;;;;;;32.42;18.50;;;;;;;;;;4988234;28;20037;-82
2022/08/14 03:16:44;;;;;;;33.53;19.42;;;;;;;;;;5022891;28;20437;-82
2022/08/14 03:19:10;;;;;;;27.73;15.45;;;;;;;;;;5025379;28;20399;-83
2022/08/14 03:21:38;;;;;;;27.15;15.88;;;;;;;;;;5001780;28;20030;-83
2022/08/14 03:26:32;;;;;;;22.27;14.57;;;;;;;;;;5026980;28;20033;-83
2022/08/14 03:28:58;;;;;;;16.83;11.40;;;;;;;;;;4997402;28;20395;-83
2022/08/14 03:31:24;;;;;;;13.63;10.10;;;;;;;;;;5016024;28;20091;-83
2022/08/14 03:33:50;;;;;;;13.07;10.00;;;;;;;;;;5021698;28;20033;-83
2022/08/14 03:36:19;;;;;;;14.07;11.02;;;;;;;;;;5020888;28;20497;-83
2022/08/14 03:38:48;;;;;;;15.88;11.18;;;;;;;;;;5021126;28;20414;-84
2022/08/14 03:41:17;;;;;;;22.00;15.07;;;;;;;;;;5020473;28;20504;-83
2022/08/14 03:43:44;;;;;;;20.38;13.63;;;;;;;;;;5020367;28;20076;-83
2022/08/14 03:46:11;;;;;;;13.75;9.93;;;;;;;;;;5028356;28;20029;-83
2022/08/14 03:48:38;;;;;;;14.98;10.77;;;;;;;;;;5021309;28;20155;-83
2022/08/14 03:51:07;;;;;;;14.18;10.73;;;;;;;;;;5023805;28;20038;-83
2022/08/14 03:53:36;;;;;;;13.18;10.23;;;;;;;;;;5014854;28;20109;-83
2022/08/14 03:56:03;;;;;;;12.52;9.70;;;;;;;;;;5021317;28;20022;-83
2022/08/14 03:58:29;;;;;;;13.13;9.77;;;;;;;;;;5014772;28;20098;-83
2022/08/14 04:00:54;;;;;;;13.25;9.35;;;;;;;;;;5023916;28;20033;-83
2022/08/14 04:03:22;;;;;;;13.18;10.35;;;;;;;;;;5014078;28;20112;-83
2022/08/14 04:05:47;;;;;;;12.85;9.55;;;;;;;;;;5031822;28;20111;-82
2022/08/14 04:08:13;;;;;;;12.98;10.00;;;;;;;;;;5019953;28;20075;-83
2022/08/14 04:10:38;;;;;;;14.73;9.70;;;;;;;;;;5021360;28;20107;-83
2022/08/14 04:13:05;;;;;;;18.05;10.55;;;;;;;;;;5014059;28;20069;-83
2022/08/14 04:15:34;;;;;;;13.55;10.50;;;;;;;;;;5014222;28;20041;-83
2022/08/14 04:18:07;;;;;;;13.32;10.50;;;;;;;;;;5026474;28;20108;-83
2022/08/14 04:20:35;;;;;;;18.52;11.82;;;;;;;;;;5018205;28;20370;-83
2022/08/14 04:23:05;;;;;;;16.35;11.27;;;;;;;;;;5018381;28;20029;-83
2022/08/14 04:25:32;;;;;;;16.92;10.25;;;;;;;;;;5023634;28;20025;-83
2022/08/14 04:27:59;;;;;;;17.98;12.63;;;;;;;;;;5023453;28;20125;-83
2022/08/14 04:30:27;;;;;;;16.30;11.48;;;;;;;;;;5024485;28;20076;-83
2022/08/14 04:32:53;;;;;;;15.65;11.90;;;;;;;;;;5018031;28;20037;-83
2022/08/14 04:35:19;;;;;;;15.85;10.88;;;;;;;;;;5024940;28;20382;-83
2022/08/14 04:45:58;;;;;;;13.82;10.52;;;;;;;;;;5015652;28;20109;-83
2022/08/14 04:48:26;;;;;;;16.10;10.25;;;;;;;;;;5017579;28;20473;-83
2022/08/14 04:50:52;;;;;;;15.75;10.57;;;;;;;;;;5014874;28;20030;-83
2022/08/14 04:53:20;;;;;;;11.63;9.00;;;;;;;;;;5021705;28;20036;-83
2022/08/14 04:55:47;;;;;;;14.20;10.68;;;;;;;;;;4996444;28;20118;-83
2022/08/14 04:58:39;;;;;;;14.88;11.65;;;;;;;;;;5023287;28;20033;-83
2022/08/14 05:01:06;;;;;;;13.50;11.15;;;;;;;;;;5012653;28;20490;-83
2022/08/14 05:03:34;;;;;;;11.15;8.93;;;;;;;;;;5015450;28;20025;-83
2022/08/14 05:06:04;;;;;;;14.32;11.07;;;;;;;;;;5021126;28;20025;-83
2022/08/14 05:08:31;;;;;;;14.50;11.73;;;;;;;;;;5023395;28;20045;-83
2022/08/14 05:10:58;;;;;;;15.15;10.65;;;;;;;;;;5021016;28;20045;-84
2022/08/14 05:13:26;;;;;;;15.05;11.02;;;;;;;;;;5023110;28;20109;-85
2022/08/14 05:15:53;;;;;;;15.38;12.15;;;;;;;;;;5022267;28;20496;-84
2022/08/14 05:18:33;;;;;;;14.55;11.10;;;;;;;;;;5018021;28;20537;-83
2022/08/14 05:21:01;;;;;;;14.80;12.02;;;;;;;;;;5018418;28;20415;-82
2022/08/14 05:23:29;;;;;;;14.32;11.65;;;;;;;;;;5016429;28;20061;-82
2022/08/14 05:26:00;;;;;;;14.25;11.70;;;;;;;;;;5016710;28;20029;-82
2022/08/14 05:28:27;;;;;;;17.85;12.23;;;;;;;;;;5010047;28;20061;-82
2022/08/14 05:30:56;;;;;;;15.30;12.57;;;;;;;;;;5011480;28;20034;-82
2022/08/14 05:33:23;;;;;;;16.05;13.00;;;;;;;;;;5010599;28;20034;-82
2022/08/14 05:35:51;;;;;;;16.00;12.93;;;;;;;;;;5011588;28;20441;-83
2022/08/14 05:38:19;;;;;;;17.25;12.80;;;;;;;;;;5016993;28;20108;-82
2022/08/14 05:40:46;;;;;;;17.67;13.52;;;;;;;;;;4993134;28;20049;-82
2022/08/14 05:43:13;;;;;;;15.35;11.82;;;;;;;;;;5015591;28;20037;-83
2022/08/14 05:45:38;;;;;;;17.10;13.60;;;;;;;;;;5016523;28;20044;-83
2022/08/14 05:48:05;;;;;;;16.70;13.43;;;;;;;;;;5014774;28;20478;-83
2022/08/14 05:50:32;;;;;;;16.50;13.00;;;;;;;;;;5019039;28;20461;-83
2022/08/14 05:52:57;;;;;;;14.68;12.70;;;;;;;;;;4996555;28;20030;-84
2022/08/14 05:55:23;;;;;;;15.85;12.45;;;;;;;;;;5010370;28;20441;-82
2022/08/14 05:57:58;;;;;;;14.63;11.80;;;;;;;;;;5009678;28;20037;-82
2022/08/14 06:00:30;;;;;;;15.10;11.70;;;;;;;;;;5017875;28;20034;-82
2022/08/14 06:03:00;;;;;;;15.38;12.18;;;;;;;;;;5011733;28;20030;-82
2022/08/14 06:05:26;;;;;;;19.45;13.75;;;;;;;;;;5009232;28;20025;-83
2022/08/14 06:07:52;;;;;;;19.05;13.20;;;;;;;;;;5012048;28;20026;-83
2022/08/14 06:10:18;;;;;;;19.17;14.05;;;;;;;;;;5009236;28;20030;-83
2022/08/14 06:12:44;;;;;;;16.60;13.48;;;;;;;;;;5013204;28;20496;-83
2022/08/14 06:15:10;;;;;;;16.08;13.15;;;;;;;;;;5018998;28;20576;-84
2022/08/14 06:17:51;;;;;;;18.13;13.93;;;;;;;;;;5011601;28;20116;-82
2022/08/14 06:20:17;;;;;;;18.70;15.75;;;;;;;;;;5012178;28;20041;-83
2022/08/14 06:22:44;;;;;;;17.42;14.23;;;;;;;;;;4994346;28;20470;-83
2022/08/14 06:25:12;;;;;;;17.98;14.85;;;;;;;;;;5010202;28;20045;-84
2022/08/14 06:27:43;;;;;;;22.95;15.82;;;;;;;;;;5013515;28;20463;-82
2022/08/14 06:30:18;;;;;;;18.42;13.13;;;;;;;;;;5014271;28;20033;-85
2022/08/14 06:32:44;;;;;;;18.25;13.85;;;;;;;;;;5011854;28;20030;-82
2022/08/14 06:35:13;;;;;;;22.02;15.18;;;;;;;;;;5011285;28;20030;-84
2022/08/14 06:37:49;;;;;;;18.60;14.75;;;;;;;;;;5013797;28;20030;-83
2022/08/14 06:40:29;;;;;;;17.63;13.85;;;;;;;;;;5018526;28;20435;-83
2022/08/14 06:42:58;;;;;;;;;;;;;;;;;;5016988;28;20039;-83
2022/08/14 06:45:24;;;;;;;21.20;15.18;;;;;;;;;;5012256;28;19928;-85
2022/08/14 06:47:50;;;;;;;19.20;15.43;;;;;;;;;;5020771;28;20486;-85
2022/08/14 06:50:18;;;;;;;19.77;15.93;;;;;;;;;;5016984;28;20026;-84
2022/08/14 06:52:44;;;;;;;21.60;16.40;;;;;;;;;;5008809;28;20161;-82
2022/08/14 06:55:12;;;;;;;21.15;16.48;;;;;;;;;;5011388;28;20104;-83
2022/08/14 06:57:42;;;;;;;21.27;15.90;;;;;;;;;;5021813;28;20029;-84
2022/08/14 07:00:14;;;;;;;21.63;16.13;;;;;;;;;;5019637;28;20469;-84
2022/08/14 07:08:25;;;;;;;21.90;15.57;;;;;;;;;;5022863;28;20092;-84
2022/08/14 07:10:54;;;;;;;20.08;16.00;;;;;;;;;;5020678;28;20359;-84
2022/08/14 07:13:20;;;;;;;23.80;18.00;;;;;;;;;;5023439;28;20442;-85
2022/08/14 07:15:49;;;;;;;22.45;16.88;;;;;;;;;;5024339;28;20053;-84
2022/08/14 07:18:35;;;;;;;22.77;17.60;;;;;;;;;;5020963;28;20055;-84
2022/08/14 07:21:02;;;;;;;23.48;17.73;;;;;;;;;;5024390;28;20034;-85
2022/08/14 07:23:28;;;;;;;27.00;18.98;;;;;;;;;;5004211;28;20082;-84
2022/08/14 07:25:55;;;;;;;23.45;17.73;;;;;;;;;;5023946;28;20033;-85
2022/08/14 07:28:23;;;;;;;20.60;15.77;;;;;;;;;;5027404;28;20523;-82
2022/08/14 07:30:56;;;;;;;23.10;17.58;;;;;;;;;;5021374;28;20183;-85
2022/08/14 07:33:24;;;;;;;23.17;16.98;;;;;;;;;;5004416;28;20029;-86
2022/08/14 07:35:50;;;;;;;23.00;16.80;;;;;;;;;;5022239;28;20033;-83
2022/08/14 07:38:18;;;;;;;25.13;17.10;;;;;;;;;;5021698;28;20045;-84
2022/08/14 07:40:44;;;;;;;21.45;16.67;;;;;;;;;;5016491;28;20378;-84
2022/08/14 07:43:09;;;;;;;23.00;16.17;;;;;;;;;;5020604;28;20025;-82
2022/08/14 07:45:35;;;;;;;16.50;12.48;;;;;;;;;;4999316;28;20040;-85
2022/08/14 07:48:00;;;;;;;16.92;12.40;;;;;;;;;;5019709;28;20039;-83
2022/08/14 07:50:26;;;;;;;15.10;12.57;;;;;;;;;;5022975;28;20117;-83
2022/08/14 07:52:51;;;;;;;17.30;11.90;;;;;;;;;;5001444;28;20053;-83
2022/08/14 07:55:18;;;;;;;17.75;14.05;;;;;;;;;;5020187;28;20402;-83
2022/08/14 07:57:45;;;;;;;15.57;12.43;;;;;;;;;;5022748;28;20034;-83
2022/08/14 08:00:17;;;;;;;17.27;13.15;;;;;;;;;;5022113;28;20029;-82
2022/08/14 08:02:45;;;;;;;16.20;13.18;;;;;;;;;;5022180;28;20108;-85
2022/08/14 08:05:12;;;;;;;15.43;12.13;;;;;;;;;;4994183;28;20041;-87
2022/08/14 08:07:39;;;;;;;16.95;12.93;;;;;;;;;;5021175;28;20032;-87
2022/08/14 08:10:31;;;;;;;15.85;12.55;;;;;;;;;;5008344;28;20034;-87
2022/08/14 08:13:02;;;;;;;17.13;13.43;;;;;;;;;;5019357;28;20025;-87
2022/08/14 08:15:31;;;;;;;17.00;13.50;;;;;;;;;;5020689;28;20367;-87
2022/08/14 08:17:59;;;;;;;22.10;15.02;;;;;;;;;;4996081;28;20032;-87
2022/08/14 08:20:25;;;;;;;18.63;14.27;;;;;;;;;;5017027;28;20386;-86
2022/08/14 08:22:54;;;;;;;17.85;14.15;;;;;;;;;;5022276;28;20026;-86
2022/08/14 08:25:20;;;;;;;16.77;13.73;;;;;;;;;;5025334;28;20029;-85
2022/08/14 08:27:59;;;;;;;19.27;15.02;;;;;;;;;;5017731;28;20128;-85
2022/08/14 08:30:26;;;;;;;21.20;16.10;;;;;;;;;;5020081;28;20021;-87
2022/08/14 08:32:53;;;;;;;20.33;16.02;;;;;;;;;;5019256;28;20033;-85
2022/08/14 08:35:25;;;;;;;11.77;9.30;;;;;;;;;;5020641;28;20017;-85
2022/08/14 08:37:52;;;;;;;8.95;7.03;;;;;;;;;;5004649;28;20029;-85
2022/08/14 08:40:28;;;;;;;8.52;6.65;;;;;;;;;;5019441;28;20463;-86
2022/08/14 08:42:53;;;;;;;9.20;6.60;;;;;;;;;;4999485;28;20025;-86
2022/08/14 08:45:20;;;;;;;8.90;7.18;;;;;;;;;;5020585;28;20026;-86
2022/08/14 08:47:47;;;;;;;8.55;7.40;;;;;;;;;;5003738;28;20026;-86
2022/08/14 08:50:19;;;;;;;10.38;7.07;;;;;;;;;;5018872;28;20029;-86
2022/08/14 08:52:50;;;;;;;8.40;6.43;;;;;;;;;;5020658;28;20034;-86
2022/08/14 08:55:23;;;;;;;8.70;6.63;;;;;;;;;;5018061;28;20033;-86
2022/08/14 08:57:56;;;;;;;9.07;7.20;;;;;;;;;;5015912;28;20026;-86
2022/08/14 09:00:22;;;;;;;7.75;6.57;;;;;;;;;;5018486;28;20042;-87
2022/08/14 09:03:02;;;;;;;9.02;7.32;;;;;;;;;;5020658;28;20032;-86
2022/08/14 09:05:27;;;;;;;;;;;;;;;;;;5021235;28;20030;-85
2022/08/14 09:07:53;;;;;;;9.10;6.45;;;;;;;;;;5019204;28;20380;-87
2022/08/14 09:10:18;;;;;;;14.10;8.30;;;;;;;;;;5003690;28;20029;-87
2022/08/14 09:12:45;;;;;;;10.73;8.52;;;;;;;;;;5000815;28;20039;-87
2022/08/14 09:15:11;;;;;;;12.95;10.40;;;;;;;;;;4999583;28;20112;-87
2022/08/14 09:17:36;;;;;;;11.85;9.75;;;;;;;;;;5018279;28;20096;-85
2022/08/14 09:20:03;;;;;;;12.48;9.57;;;;;;;;;;5016398;28;20112;-83
2022/08/14 09:22:30;;;;;;;11.65;9.65;;;;;;;;;;5021954;28;20033;-83
2022/08/14 09:24:56;;;;;;;11.07;8.75;;;;;;;;;;5022291;28;20071;-83
2022/08/14 09:27:21;;;;;;;11.27;8.82;;;;;;;;;;4995521;28;20045;-84
2022/08/14 09:29:46;;;;;;;11.02;9.07;;;;;;;;;;5017704;28;20049;-83
2022/08/14 09:32:21;;;;;;;11.95;9.57;;;;;;;;;;5018854;28;20033;-86
2022/08/14 09:35:02;;;;;;;9.73;8.60;;;;;;;;;;5008508;28;20389;-83
2022/08/14 09:37:48;;;;;;;10.25;8.65;;;;;;;;;;5021274;28;20045;-84
2022/08/14 09:40:21;;;;;;;9.77;8.35;;;;;;;;;;5017160;28;20374;-86
2022/08/14 09:42:58;;;;;;;9.88;8.82;;;;;;;;;;5015677;28;20034;-83
2022/08/14 09:45:33;;;;;;;10.80;9.20;;;;;;;;;;5002099;28;20367;-82
2022/08/14 09:47:59;;;;;;;10.57;8.93;;;;;;;;;;5014590;28;20026;-83
2022/08/14 09:50:31;;;;;;;11.30;9.55;;;;;;;;;;5017734;28;20038;-84
2022/08/14 09:53:03;;;;;;;11.00;9.30;;;;;;;;;;5021878;28;20036;-83
2022/08/14 09:55:32;;;;;;;9.40;8.23;;;;;;;;;;5018467;28;20470;-82
2022/08/14 09:58:18;;;;;;;12.90;9.47;;;;;;;;;;5025063;28;20033;-82
2022/08/14 10:00:59;;;;;;;11.57;9.02;;;;;;;;;;5000972;28;20454;-82
2022/08/14 10:03:33;;;;;;;12.50;8.70;;;;;;;;;;5022250;28;20033;-83
2022/08/14 10:06:06;;;;;;;10.48;8.60;;;;;;;;;;5023083;28;20036;-82
2022/08/14 10:08:44;;;;;;;9.80;8.20;;;;;;;;;;5018930;28;20030;-82
2022/08/14 10:11:34;;;;;;;8.75;7.68;;;;;;;;;;5022331;28;20509;-81
2022/08/14 10:14:17;;;;;;;10.15;8.82;;;;;;;;;;5026182;28;20022;-83
2022/08/14 10:16:53;;;;;;;8.65;7.60;;;;;;;;;;5026497;28;20049;-82
2022/08/14 10:19:20;;;;;;;10.07;8.10;;;;;;;;;;5028666;28;20096;-83
2022/08/14 10:21:56;;;;;;;10.20;7.90;;;;;;;;;;5022478;28;20036;-82
2022/08/14 10:24:24;;;;;;;9.63;7.88;;;;;;;;;;5029146;28;20500;-81
2022/08/14 10:26:58;;;;;;;11.05;8.63;;;;;;;;;;5021959;28;20097;-85
2022/08/14 10:29:37;;;;;;;13.50;9.70;;;;;;;;;;4991836;28;20083;-84
2022/08/14 10:32:03;;;;;;;10.18;8.77;;;;;;;;;;4995565;28;20119;-86
2022/08/14 10:34:38;;;;;;;11.60;8.75;;;;;;;;;;4996567;28;20119;-84
2022/08/14 10:37:10;;;;;;;15.10;10.98;;;;;;;;;;4938944;28;20066;-85
2022/08/14 10:43:48;;;;;;;10.20;8.18;;;;;;;;;;4934964;28;20118;-87
2022/08/14 10:50:01;;;;;;;9.85;7.65;;;;;;;;;;4922246;28;20043;-85
2022/08/14 10:52:37;;;;;;;9.98;8.20;;;;;;;;;;4926244;28;20615;-85
2022/08/14 10:55:25;;;;;;;;;;;;;;;;;;;;;
2022/08/14 10:57:53;;;;;;;8.68;7.50;;;;;;;;;;4921382;28;20034;-86
2022/08/14 11:00:25;;;;;;;8.50;7.35;;;;;;;;;;4984522;28;20409;-84
2022/08/14 11:03:08;;;;;;;11.13;7.47;;;;;;;;;;4988462;28;20036;-87
2022/08/14 11:05:49;;;;;;;10.00;6.32;;;;;;;;;;4925498;28;20078;-85
2022/08/14 11:08:18;;;;;;;8.43;6.63;;;;;;;;;;4920525;28;20032;-85
2022/08/14 11:10:49;;;;;;;8.65;6.60;;;;;;;;;;4923224;28;20024;-84
2022/08/14 11:13:25;;;;;;;5.82;5.22;;;;;;;;;;4923980;28;20063;-85
2022/08/14 11:15:51;;;;;;;6.20;4.82;;;;;;;;;;4987850;28;20078;-85
2022/08/14 11:18:18;;;;;;;5.65;4.78;;;;;;;;;;4923077;28;20468;-85
2022/08/14 11:20:55;;;;;;;5.60;4.22;;;;;;;;;;4921030;29;20030;-85
2022/08/14 11:23:32;;;;;;;6.30;5.05;;;;;;;;;;4919619;28;20032;-87
2022/08/14 11:25:59;;;;;;;6.38;5.28;;;;;;;;;;4918807;29;20032;-86
2022/08/14 11:28:29;;;;;;;7.03;5.10;;;;;;;;;;4916086;28;20106;-86
2022/08/14 11:30:57;;;;;;;5.65;5.05;;;;;;;;;;4983050;28;20037;-85
2022/08/14 11:33:28;;;;;;;5.93;5.22;;;;;;;;;;4916810;29;20475;-84
2022/08/14 11:35:53;;;;;;;9.75;5.53;;;;;;;;;;4919027;28;20040;-86
2022/08/14 11:38:20;;;;;;;6.38;4.47;;;;;;;;;;4919831;29;20058;-84
2022/08/14 11:40:46;;;;;;;6.93;5.38;;;;;;;;;;4986990;28;20028;-86
2022/08/14 11:43:11;;;;;;;6.10;5.45;;;;;;;;;;4919752;29;20110;-85
2022/08/14 11:45:39;;;;;;;5.70;4.88;;;;;;;;;;4917219;28;20124;-85
2022/08/14 11:48:23;;;;;;;5.72;4.85;;;;;;;;;;4916952;28;20433;-84
2022/08/14 11:50:53;;;;;;;6.18;4.72;;;;;;;;;;4916202;28;20036;-86
2022/08/14 11:53:29;;;;;;;5.00;4.43;;;;;;;;;;5004393;28;20102;-87
2022/08/14 11:56:03;;;;;;;7.63;4.80;;;;;;;;;;4920322;29;20123;-86
2022/08/14 11:58:37;;;;;;;6.03;4.90;;;;;;;;;;4921485;28;20036;-84
2022/08/14 12:01:08;;;;;;;5.28;4.78;;;;;;;;;;4983892;28;20485;-85
2022/08/14 12:03:39;;;;;;;5.57;5.00;;;;;;;;;;4986579;28;20051;-85
2022/08/14 12:06:10;;;;;;;5.05;4.55;;;;;;;;;;4918571;28;20024;-85
2022/08/14 12:08:37;;;;;;;5.85;4.90;;;;;;;;;;4920383;28;20063;-85
2022/08/14 12:11:04;;;;;;;5.72;5.13;;;;;;;;;;4921420;28;20071;-85
2022/08/14 12:13:33;;;;;;;5.72;5.13;;;;;;;;;;4926997;28;20505;-86
2022/08/14 12:16:07;;;;;;;5.43;4.63;;;;;;;;;;4915870;28;20035;-85
2022/08/14 12:18:38;;;;;;;6.15;5.38;;;;;;;;;;4918287;28;20143;-88
2022/08/14 12:21:29;;;;;;;6.15;4.63;;;;;;;;;;4926203;28;20084;-86
2022/08/14 12:24:07;;;;;;;5.45;4.22;;;;;;;;;;4980960;28;20043;-85
2022/08/14 12:26:33;;;;;;;5.97;4.47;;;;;;;;;;4923767;28;20039;-87
2022/08/14 12:29:11;;;;;;;4.90;4.40;;;;;;;;;;5020787;28;20053;-85
2022/08/14 12:31:40;;;;;;;6.88;4.68;;;;;;;;;;5019796;28;20022;-85
2022/08/14 12:34:07;;;;;;;6.40;4.77;;;;;;;;;;5020347;28;20058;-85
2022/08/14 12:36:41;;;;;;;7.22;5.40;;;;;;;;;;5018552;28;20040;-85
2022/08/14 13:01:08;;;;;;;6.20;4.38;;;;;;;;;;4782241;29;20112;-85
2022/08/14 13:10:59;;;;;;;4.75;4.18;;;;;;;;;;4780324;29;20027;-87
2022/08/14 13:17:00;;;;;;;5.03;4.07;;;;;;;;;;4790550;29;20068;-88
2022/08/14 13:19:44;;;;;;;5.63;3.90;;;;;;;;;;4932769;28;20438;-87
2022/08/14 13:22:11;;;;;;;5.30;3.85;;;;;;;;;;4946327;28;20486;-89
2022/08/14 13:24:38;;;;;;;5.05;3.65;;;;;;;;;;4963076;28;20035;-84
2022/08/14 13:27:04;;;;;;;4.68;3.72;;;;;;;;;;4962131;28;20479;-88
2022/08/14 13:29:39;;;;;;;4.22;3.38;;;;;;;;;;4963478;28;20057;-87
2022/08/14 13:32:08;;;;;;;3.95;3.55;;;;;;;;;;4957785;28;20039;-88
2022/08/14 13:34:33;;;;;;;4.10;3.60;;;;;;;;;;4954056;28;20050;-88
2022/08/14 13:37:00;;;;;;;4.57;3.20;;;;;;;;;;4942230;28;20530;-86
2022/08/14 13:39:28;;;;;;;5.90;3.60;;;;;;;;;;4960591;28;20039;-89
2022/08/14 13:41:53;;;;;;;4.38;3.22;;;;;;;;;;4960823;28;20027;-88
2022/08/14 13:44:19;;;;;;;5.57;3.90;;;;;;;;;;4986871;28;20030;-87
2022/08/14 13:46:46;;;;;;;7.15;3.90;;;;;;;;;;5006990;28;20112;-87
2022/08/14 13:49:12;;;;;;;7.45;4.60;;;;;;;;;;5022472;28;20033;-86
2022/08/14 13:51:39;;;;;;;7.75;4.30;;;;;;;;;;5018113;28;20073;-86
2022/08/14 13:54:06;;;;;;;7.45;4.40;;;;;;;;;;5005116;28;20028;-85
2022/08/14 13:56:37;;;;;;;5.60;4.55;;;;;;;;;;5020797;28;20036;-85
2022/08/14 13:59:02;;;;;;;7.05;4.60;;;;;;;;;;5019001;28;20489;-88
2022/08/14 14:01:29;;;;;;;8.23;4.72;;;;;;;;;;5016359;28;20029;-86
2022/08/14 14:03:55;;;;;;;7.43;4.68;;;;;;;;;;5018170;28;20056;-87
2022/08/14 14:06:24;;;;;;;7.82;4.80;;;;;;;;;;4995650;28;20029;-85
2022/08/14 14:08:54;;;;;;;8.37;4.80;;;;;;;;;;5021135;28;20131;-87
2022/08/14 14:11:22;;;;;;;5.50;4.43;;;;;;;;;;5023028;28;20025;-87
2022/08/14 14:13:50;;;;;;;10.07;4.40;;;;;;;;;;5021279;28;20770;-87
2022/08/14 14:16:19;;;;;;;7.38;4.65;;;;;;;;;;5019187;28;20028;-86
2022/08/14 14:18:48;;;;;;;6.80;4.47;;;;;;;;;;5023256;28;20033;-86
2022/08/14 14:21:17;;;;;;;6.43;4.75;;;;;;;;;;5001302;28;20025;-85
2022/08/14 14:23:43;;;;;;;19.20;6.88;;;;;;;;;;5017463;28;20025;-86
2022/08/14 14:26:14;;;;;;;6.10;4.13;;;;;;;;;;4998539;28;20060;-85
2022/08/14 14:28:41;;;;;;;11.43;6.32;;;;;;;;;;5020121;28;20049;-85
2022/08/14 14:31:07;;;;;;;6.93;5.15;;;;;;;;;;5020781;28;20409;-85
2022/08/14 14:33:34;;;;;;;5.35;4.22;;;;;;;;;;5020900;28;20017;-86
2022/08/14 14:36:02;;;;;;;7.95;4.40;;;;;;;;;;5020324;28;20025;-85
2022/08/14 14:38:32;;;;;;;7.53;5.05;;;;;;;;;;5002309;28;20034;-86
2022/08/14 14:40:58;;;;;;;6.57;4.47;;;;;;;;;;5018757;28;20013;-86
2022/08/14 14:43:26;;;;;;;6.68;4.72;;;;;;;;;;5019131;28;20096;-86
2022/08/14 14:45:53;;;;;;;6.28;4.45;;;;;;;;;;5003842;28;20033;-85
2022/08/14 14:48:19;;;;;;;5.95;4.93;;;;;;;;;;5019738;28;20026;-86
2022/08/14 14:50:45;;;;;;;6.93;4.80;;;;;;;;;;5022435;28;20029;-86
2022/08/14 14:53:10;;;;;;;7.13;5.00;;;;;;;;;;5020805;28;20026;-86
2022/08/14 14:55:40;;;;;;;5.25;4.32;;;;;;;;;;4989100;28;20489;-86
2022/08/14 14:58:07;;;;;;;6.75;5.07;;;;;;;;;;5004297;28;20522;-86
2022/08/14 15:00:33;;;;;;;6.40;5.22;;;;;;;;;;5028114;28;20021;-86
2022/08/14 15:02:58;;;;;;;5.53;4.50;;;;;;;;;;5006103;28;20474;-86
2022/08/14 15:05:24;;;;;;;5.82;4.35;;;;;;;;;;5009930;28;20026;-85
2022/08/14 15:07:51;;;;;;;4.85;4.10;;;;;;;;;;5000595;28;20029;-86
2022/08/14 15:10:19;;;;;;;5.40;4.50;;;;;;;;;;4993868;28;20033;-86
2022/08/14 15:12:44;;;;;;;8.80;4.30;;;;;;;;;;5024772;28;20026;-85
2022/08/14 15:15:11;;;;;;;5.70;4.25;;;;;;;;;;5022377;28;20133;-86
2022/08/14 15:17:39;;;;;;;7.00;4.63;;;;;;;;;;5001790;28;20524;-86
2022/08/14 15:20:08;;;;;;;5.10;4.50;;;;;;;;;;5008170;28;20106;-84
2022/08/14 15:22:34;;;;;;;6.35;4.28;;;;;;;;;;5021407;28;20034;-84
2022/08/14 15:25:00;;;;;;;6.57;4.55;;;;;;;;;;5002328;28;20084;-85
2022/08/14 15:27:25;;;;;;;7.03;4.25;;;;;;;;;;5003668;28;20061;-85
2022/08/14 15:29:51;;;;;;;8.32;4.68;;;;;;;;;;5025709;28;20045;-86
2022/08/14 15:32:16;;;;;;;5.88;4.82;;;;;;;;;;5022437;28;20044;-86
2022/08/14 15:34:44;;;;;;;6.85;4.35;;;;;;;;;;5020082;28;20022;-85
2022/08/14 15:37:10;;;;;;;5.13;4.10;;;;;;;;;;5024397;28;20026;-88
2022/08/14 15:39:36;;;;;;;6.10;4.65;;;;;;;;;;5001966;28;20026;-86
2022/08/14 15:42:04;;;;;;;5.22;4.32;;;;;;;;;;5008552;28;20386;-88